Time;durP1;ratioP1;P1;durP2;ratioP2;P2;SDS_P1;SDS_P2;PMS_P1;PMS_P2;Temp;Humidity;BMP_temperature;BMP_pressure;BME280_temperature;BME280_humidity;BME280_pressure;Samples;Min_cycle;Max_cycle;Signal;HPM_P1;HPM_P2
2023/10/20 00:01:00;;;;;;;7.32;6.90;;;7.70;99.90;;;;;;4986117;28;20273;-84
2023/10/20 00:03:27;;;;;;;9.43;7.75;;;7.60;99.90;;;;;;4986308;28;20258;-80
2023/10/20 00:05:58;;;;;;;10.85;9.98;;;7.60;99.90;;;;;;4986307;28;20436;-80
2023/10/20 00:08:25;;;;;;;4.20;4.00;;;7.60;99.90;;;;;;4992416;28;20248;-77
2023/10/20 00:10:57;;;;;;;4.10;3.90;;;7.60;99.90;;;;;;4994174;28;20305;-77
2023/10/20 00:13:24;;;;;;;6.78;6.30;;;7.70;99.90;;;;;;4995715;28;20210;-81
2023/10/20 00:15:52;;;;;;;8.55;7.93;;;7.60;99.90;;;;;;4982074;28;20274;-78
2023/10/20 00:18:22;;;;;;;7.30;6.57;;;7.70;99.90;;;;;;4994209;28;20210;-81
2023/10/20 00:20:51;;;;;;;4.38;4.18;;;7.60;99.90;;;;;;4996217;28;20237;-80
2023/10/20 00:23:18;;;;;;;6.40;5.90;;;7.70;99.90;;;;;;5000180;28;20210;-78
2023/10/20 00:25:45;;;;;;;7.72;7.15;;;7.60;99.90;;;;;;4988171;28;20219;-79
2023/10/20 00:28:15;;;;;;;5.00;4.70;;;7.60;99.90;;;;;;4995530;28;20206;-77
2023/10/20 00:30:41;;;;;;;3.55;3.35;;;7.60;99.90;;;;;;4991681;28;20758;-78
2023/10/20 00:33:08;;;;;;;11.32;10.48;;;7.50;99.90;;;;;;4976814;28;20242;-84
2023/10/20 00:35:35;;;;;;;5.32;4.57;;;7.50;99.90;;;;;;4983012;28;20227;-79
2023/10/20 00:38:02;;;;;;;5.45;5.03;;;7.50;99.90;;;;;;4983817;28;20207;-81
2023/10/20 00:40:30;;;;;;;9.27;8.55;;;7.50;99.90;;;;;;4985350;28;20220;-79
2023/10/20 00:42:57;;;;;;;5.88;5.57;;;7.60;99.90;;;;;;4988961;28;20282;-79
2023/10/20 00:45:24;;;;;;;13.77;12.50;;;7.50;99.90;;;;;;4990208;28;20206;-77
2023/10/20 00:47:51;;;;;;;3.45;3.28;;;7.50;99.90;;;;;;4992734;28;20278;-81
2023/10/20 00:50:19;;;;;;;3.30;3.10;;;7.60;99.90;;;;;;4984957;28;20266;-80
2023/10/20 00:52:50;;;;;;;6.85;6.30;;;7.60;99.90;;;;;;4993337;28;20229;-76
2023/10/20 00:55:19;;;;;;;8.40;7.65;;;7.50;99.90;;;;;;4989549;28;20304;-80
2023/10/20 00:57:47;;;;;;;7.28;6.85;;;7.60;99.90;;;;;;4990968;28;20242;-85
2023/10/20 01:00:15;;;;;;;11.65;6.55;;;7.60;99.90;;;;;;4995892;28;20207;-83
2023/10/20 01:02:44;;;;;;;9.30;7.78;;;7.60;99.90;;;;;;4989437;28;20233;-80
2023/10/20 01:05:14;;;;;;;6.63;6.20;;;7.60;99.90;;;;;;4992785;28;20260;-83
2023/10/20 01:07:44;;;;;;;9.10;7.25;;;7.60;99.90;;;;;;4990448;28;20217;-78
2023/10/20 01:10:11;;;;;;;2.30;2.20;;;7.60;99.90;;;;;;4978988;28;20228;-79
2023/10/20 01:12:39;;;;;;;6.85;6.45;;;7.70;99.90;;;;;;4977290;28;20227;-83
2023/10/20 01:15:07;;;;;;;9.82;8.65;;;7.70;99.90;;;;;;4987765;28;20403;-80
2023/10/20 01:17:34;;;;;;;6.88;5.95;;;7.70;99.90;;;;;;4983642;28;20536;-78
2023/10/20 01:20:03;;;;;;;6.10;5.80;;;7.70;99.90;;;;;;4994618;28;20238;-79
2023/10/20 01:22:30;;;;;;;7.47;6.93;;;7.60;99.90;;;;;;4994291;28;20214;-79
2023/10/20 01:24:58;;;;;;;12.02;10.90;;;7.70;99.90;;;;;;4988083;28;20407;-85
2023/10/20 01:27:25;;;;;;;11.07;10.43;;;7.60;99.90;;;;;;4991524;28;20279;-85
2023/10/20 01:29:55;;;;;;;10.63;9.68;;;7.70;99.90;;;;;;4981165;28;20214;-82
2023/10/20 01:32:22;;;;;;;7.57;7.03;;;7.70;99.90;;;;;;4987336;28;20305;-88
2023/10/20 01:34:49;;;;;;;9.23;8.35;;;7.70;99.90;;;;;;4986548;28;20239;-79
2023/10/20 01:37:18;;;;;;;3.50;3.30;;;7.70;99.90;;;;;;4976680;28;20278;-80
2023/10/20 01:39:45;;;;;;;4.88;4.57;;;7.70;99.90;;;;;;4994525;28;20199;-87
2023/10/20 01:42:13;;;;;;;3.78;3.55;;;7.70;99.90;;;;;;4990748;28;20294;-80
2023/10/20 01:44:40;;;;;;;7.35;6.88;;;7.70;99.90;;;;;;4987798;28;20482;-82
2023/10/20 01:47:08;;;;;;;5.35;4.97;;;7.70;99.90;;;;;;4991300;28;20233;-89
2023/10/20 01:49:37;;;;;;;7.85;7.43;;;7.70;99.90;;;;;;4992826;28;20214;-82
2023/10/20 01:52:04;;;;;;;5.78;5.38;;;7.60;99.90;;;;;;4989550;28;20254;-82
2023/10/20 01:54:44;;;;;;;5.13;4.75;;;7.70;99.90;;;;;;5002319;28;20257;-79
2023/10/20 01:57:12;;;;;;;4.38;4.18;;;7.70;99.90;;;;;;5000245;28;20266;-83
2023/10/20 01:59:39;;;;;;;8.10;5.70;;;7.70;99.90;;;;;;5006500;28;20256;-80
2023/10/20 02:02:06;;;;;;;6.90;6.25;;;7.70;99.90;;;;;;4986829;28;20267;-78
2023/10/20 02:04:34;;;;;;;8.82;6.95;;;7.60;99.90;;;;;;4986190;28;20249;-79
2023/10/20 02:07:01;;;;;;;9.15;8.13;;;7.60;99.90;;;;;;4994752;28;20218;-79
2023/10/20 02:09:28;;;;;;;4.82;4.53;;;7.60;99.90;;;;;;4991180;28;20202;-84
2023/10/20 02:11:58;;;;;;;4.90;3.40;;;7.60;99.90;;;;;;5001617;28;20237;-79
2023/10/20 02:14:25;;;;;;;5.10;4.88;;;7.60;99.90;;;;;;4990547;28;20258;-80
2023/10/20 02:16:54;;;;;;;5.80;5.28;;;7.70;99.90;;;;;;4987798;28;20249;-80
2023/10/20 02:19:21;;;;;;;9.07;7.45;;;7.70;99.90;;;;;;4973126;28;20209;-83
2023/10/20 02:21:48;;;;;;;8.88;8.13;;;7.70;99.90;;;;;;4987759;28;20233;-77
2023/10/20 02:24:15;;;;;;;10.57;8.27;;;7.70;99.90;;;;;;4989294;28;20236;-76
2023/10/20 02:26:42;;;;;;;9.50;7.97;;;7.70;99.90;;;;;;4988405;28;20218;-82
2023/10/20 02:29:10;;;;;;;9.57;8.77;;;7.70;99.90;;;;;;4986260;28;20280;-76
2023/10/20 02:31:37;;;;;;;7.75;7.25;;;7.70;99.90;;;;;;4983913;28;20265;-80
2023/10/20 02:34:05;;;;;;;6.82;6.32;;;7.70;99.90;;;;;;4984158;28;20210;-81
2023/10/20 02:36:35;;;;;;;7.50;6.90;;;7.70;99.90;;;;;;4981161;28;20236;-79
2023/10/20 02:39:02;;;;;;;6.53;4.63;;;7.70;99.90;;;;;;4989325;28;20244;-82
2023/10/20 02:41:29;;;;;;;7.32;4.50;;;7.70;99.90;;;;;;4991521;28;20270;-82
2023/10/20 02:43:56;;;;;;;6.55;4.45;;;7.70;99.90;;;;;;4989810;28;20218;-79
2023/10/20 02:46:23;;;;;;;5.38;5.07;;;7.70;99.90;;;;;;4986599;28;20517;-78
2023/10/20 02:48:50;;;;;;;22.13;9.35;;;7.70;99.90;;;;;;4990701;28;20249;-86
2023/10/20 02:51:20;;;;;;;4.40;4.10;;;7.70;99.90;;;;;;4995465;28;20202;-80
2023/10/20 02:53:47;;;;;;;5.53;5.10;;;7.60;99.90;;;;;;4992597;28;20211;-82
2023/10/20 02:56:17;;;;;;;5.82;5.07;;;7.70;99.90;;;;;;5004024;28;20213;-78
2023/10/20 02:58:45;;;;;;;7.13;6.50;;;7.60;99.90;;;;;;4982432;28;20211;-86
2023/10/20 03:01:13;;;;;;;4.72;4.43;;;7.70;99.90;;;;;;4989323;28;20183;-81
2023/10/20 03:03:40;;;;;;;3.58;3.38;;;7.70;99.90;;;;;;4989182;28;20211;-77
2023/10/20 03:06:08;;;;;;;8.30;7.70;;;7.70;99.90;;;;;;4979408;28;20224;-90
2023/10/20 03:08:37;;;;;;;6.45;6.10;;;7.70;99.90;;;;;;4992446;28;20290;-80
2023/10/20 03:11:06;;;;;;;9.15;5.97;;;7.70;99.90;;;;;;4993548;28;20523;-79
2023/10/20 03:13:33;;;;;;;5.82;5.43;;;7.70;99.90;;;;;;4987925;28;20577;-82
2023/10/20 03:16:01;;;;;;;3.53;3.33;;;7.60;99.90;;;;;;4981773;28;20251;-80
2023/10/20 03:18:28;;;;;;;5.05;4.63;;;7.70;99.90;;;;;;4992264;28;20222;-76
2023/10/20 03:21:02;;;;;;;3.63;3.25;;;7.60;99.90;;;;;;4983869;28;20334;-80
2023/10/20 03:23:30;;;;;;;6.00;5.63;;;7.60;99.90;;;;;;4983466;28;20229;-76
2023/10/20 03:25:57;;;;;;;3.08;2.85;;;7.60;99.90;;;;;;4987396;28;20437;-78
2023/10/20 03:28:32;;;;;;;8.30;7.78;;;7.60;99.90;;;;;;4989070;28;20238;-87
2023/10/20 03:31:13;;;;;;;3.85;3.55;;;7.60;99.90;;;;;;4989318;28;20214;-79
2023/10/20 03:33:41;;;;;;;4.95;4.65;;;7.50;99.90;;;;;;4979877;28;20235;-84
2023/10/20 03:36:08;;;;;;;5.28;5.03;;;7.50;99.90;;;;;;4994964;28;20289;-78
2023/10/20 03:38:35;;;;;;;8.10;7.45;;;7.50;99.90;;;;;;4988993;28;20202;-82
2023/10/20 03:41:09;;;;;;;4.18;3.88;;;7.60;99.90;;;;;;4994587;28;20214;-82
2023/10/20 03:43:37;;;;;;;9.20;7.63;;;7.60;99.90;;;;;;4988348;28;20222;-81
2023/10/20 03:46:05;;;;;;;4.13;3.88;;;7.60;99.90;;;;;;4991323;28;20230;-80
2023/10/20 03:48:34;;;;;;;10.32;8.98;;;7.60;99.90;;;;;;4991120;28;20698;-82
2023/10/20 03:51:05;;;;;;;8.50;7.90;;;7.60;99.90;;;;;;5006698;28;20207;-88
2023/10/20 03:53:46;;;;;;;12.75;11.10;;;7.60;99.90;;;;;;4983173;28;20306;-82
2023/10/20 03:56:14;;;;;;;7.72;7.18;;;7.60;99.90;;;;;;4986567;28;20206;-79
2023/10/20 03:58:42;;;;;;;8.75;5.47;;;7.60;99.90;;;;;;5001668;28;20218;-80
2023/10/20 04:01:12;;;;;;;5.68;5.32;;;7.60;99.90;;;;;;4989745;28;20218;-80
2023/10/20 04:03:40;;;;;;;12.40;6.47;;;7.60;99.90;;;;;;4997329;28;20211;-90
2023/10/20 04:06:08;;;;;;;4.95;4.55;;;7.60;99.90;;;;;;5142246;23;20225;-88
2023/10/20 04:08:36;;;;;;;5.18;4.88;;;7.60;99.90;;;;;;5012064;28;20317;-80
2023/10/20 04:11:03;;;;;;;3.85;3.65;;;7.60;99.90;;;;;;5013691;28;20211;-80
2023/10/20 04:13:32;;;;;;;7.75;7.32;;;7.60;99.90;;;;;;5005485;28;20226;-82
2023/10/20 04:16:12;;;;;;;5.03;4.72;;;7.60;99.90;;;;;;5001503;28;20207;-84
2023/10/20 04:18:44;;;;;;;37.15;6.05;;;7.60;99.90;;;;;;4992960;28;20210;-80
2023/10/20 04:21:14;;;;;;;6.10;5.75;;;7.60;99.90;;;;;;4995592;28;20207;-86
2023/10/20 04:23:43;;;;;;;6.00;5.65;;;7.60;99.90;;;;;;5006784;28;20190;-88
2023/10/20 04:26:21;;;;;;;3.60;3.45;;;7.60;99.90;;;;;;4994270;28;20215;-80
2023/10/20 04:54:41;;;;;;;4.10;3.85;;;7.70;99.90;;;;;;4996614;28;20225;-77
2023/10/20 04:59:40;;;;;;;5.47;5.18;;;7.60;99.90;;;;;;4994330;28;20210;-83
2023/10/20 05:02:22;;;;;;;6.53;5.90;;;7.60;99.90;;;;;;4989780;28;20213;-80
2023/10/20 05:04:50;;;;;;;29.08;6.50;;;7.60;99.90;;;;;;4990938;28;20206;-85
2023/10/20 05:07:26;;;;;;;4.22;3.97;;;7.60;99.90;;;;;;5004638;28;20205;-81
2023/10/20 05:09:54;;;;;;;5.15;4.75;;;7.60;99.90;;;;;;4992159;28;20203;-83
2023/10/20 05:12:21;;;;;;;23.88;5.78;;;7.60;99.90;;;;;;4998033;28;20202;-81
2023/10/20 05:14:50;;;;;;;4.20;4.00;;;7.60;99.90;;;;;;4992665;28;20215;-83
2023/10/20 05:17:19;;;;;;;3.50;3.30;;;7.60;99.90;;;;;;4984907;28;20207;-80
2023/10/20 05:19:49;;;;;;;4.43;4.13;;;7.60;99.90;;;;;;4997872;28;20199;-79
2023/10/20 05:22:16;;;;;;;4.70;4.45;;;7.70;99.90;;;;;;4994284;28;20233;-80
2023/10/20 05:24:43;;;;;;;8.90;8.30;;;7.70;99.90;;;;;;4987734;28;20214;-82
2023/10/20 05:27:12;;;;;;;4.40;4.13;;;7.60;99.90;;;;;;4998029;28;20277;-81
2023/10/20 05:29:39;;;;;;;4.80;4.50;;;7.70;99.90;;;;;;4998263;28;20264;-79
2023/10/20 05:32:06;;;;;;;5.50;4.90;;;7.70;99.90;;;;;;4980413;28;20223;-81
2023/10/20 05:34:34;;;;;;;5.97;4.57;;;7.70;99.90;;;;;;4995633;28;20241;-87
2023/10/20 05:37:02;;;;;;;7.05;6.43;;;7.70;99.90;;;;;;5010691;28;20434;-78
2023/10/20 05:39:32;;;;;;;7.53;6.88;;;7.70;99.90;;;;;;5001057;28;20206;-82
2023/10/20 05:42:01;;;;;;;9.23;8.57;;;7.70;99.90;;;;;;5000083;28;20214;-81
2023/10/20 05:44:37;;;;;;;4.10;3.90;;;7.70;99.90;;;;;;4986034;28;20276;-79
2023/10/20 05:47:07;;;;;;;4.60;4.18;;;7.70;99.90;;;;;;5004885;28;20197;-86
2023/10/20 05:49:34;;;;;;;5.55;5.28;;;7.70;99.90;;;;;;5014425;28;20261;-81
2023/10/20 05:52:02;;;;;;;8.82;8.15;;;7.70;99.90;;;;;;5010996;28;20212;-83
2023/10/20 05:54:31;;;;;;;4.78;3.63;;;7.70;99.90;;;;;;5007204;28;20257;-79
2023/10/20 05:57:00;;;;;;;5.03;4.63;;;7.70;99.90;;;;;;5009234;28;20236;-81
2023/10/20 05:59:30;;;;;;;7.68;6.97;;;7.80;99.90;;;;;;5011358;28;20278;-81
2023/10/20 06:01:58;;;;;;;4.65;3.75;;;7.80;99.90;;;;;;4998294;28;20207;-83
2023/10/20 06:04:25;;;;;;;5.03;4.63;;;7.80;99.90;;;;;;4991318;28;20530;-80
2023/10/20 06:06:56;;;;;;;8.07;7.57;;;7.90;99.90;;;;;;4991239;28;20226;-83
2023/10/20 06:09:26;;;;;;;6.47;5.97;;;7.80;99.90;;;;;;4990275;28;20545;-83
2023/10/20 06:11:56;;;;;;;11.15;5.28;;;7.80;99.90;;;;;;4988669;28;20265;-79
2023/10/20 06:14:25;;;;;;;4.38;4.00;;;7.80;99.90;;;;;;4996259;28;20250;-90
2023/10/20 06:17:06;;;;;;;3.70;3.40;;;7.80;99.90;;;;;;5005346;28;20241;-86
2023/10/20 06:19:35;;;;;;;6.30;5.82;;;7.80;99.90;;;;;;4989091;28;20210;-79
2023/10/20 06:22:03;;;;;;;5.22;4.93;;;7.90;99.90;;;;;;5005075;28;20221;-87
2023/10/20 06:24:30;;;;;;;3.78;3.58;;;7.90;99.90;;;;;;4996153;28;20348;-81
2023/10/20 06:27:02;;;;;;;10.85;7.07;;;7.90;99.90;;;;;;4998602;28;20198;-80
2023/10/20 06:32:46;;;;;;;2.95;2.85;;;8.00;99.90;;;;;;4993083;28;20207;-87
2023/10/20 06:35:02;;;;;;;6.22;5.82;;;8.00;99.90;;;;;;5000153;28;20205;-85
2023/10/20 06:37:37;;;;;;;4.50;4.30;;;8.00;99.90;;;;;;5007996;28;20240;-87
2023/10/20 06:40:07;;;;;;;4.28;4.03;;;7.90;99.90;;;;;;4998411;28;20277;-79
2023/10/20 06:42:37;;;;;;;5.20;4.80;;;7.90;99.90;;;;;;4999770;28;20200;-82
2023/10/20 06:45:06;;;;;;;3.08;2.90;;;8.00;99.90;;;;;;4992101;28;20214;-84
2023/10/20 06:47:34;;;;;;;6.43;5.85;;;8.00;99.90;;;;;;4999150;28;20344;-89
2023/10/20 06:50:04;;;;;;;7.03;5.30;;;8.00;99.90;;;;;;4996192;28;20553;-82
2023/10/20 06:52:35;;;;;;;7.50;5.88;;;7.90;99.90;;;;;;4991523;28;20237;-82
2023/10/20 06:55:04;;;;;;;6.80;6.20;;;8.00;99.90;;;;;;4987439;28;20494;-82
2023/10/20 06:57:54;;;;;;;6.47;5.55;;;8.00;99.90;;;;;;4995007;28;20233;-86
2023/10/20 07:00:26;;;;;;;2.38;2.28;;;8.00;99.90;;;;;;4984799;28;20269;-83
2023/10/20 07:02:56;;;;;;;2.40;2.30;;;8.00;99.90;;;;;;4998560;28;20221;-88
2023/10/20 07:05:28;;;;;;;7.10;6.70;;;8.00;99.90;;;;;;5003437;28;20222;-82
2023/10/20 07:08:00;;;;;;;4.45;4.25;;;8.00;99.90;;;;;;4991873;28;20214;-85
2023/10/20 07:10:34;;;;;;;6.55;6.10;;;8.10;99.90;;;;;;4977237;28;20214;-86
2023/10/20 07:13:02;;;;;;;3.22;3.05;;;8.10;99.90;;;;;;5003441;28;20705;-80
2023/10/20 07:15:33;;;;;;;4.35;4.05;;;8.10;99.90;;;;;;4986525;28;20202;-80
2023/10/20 07:18:00;;;;;;;3.35;3.15;;;8.20;99.90;;;;;;4998605;28;20194;-81
2023/10/20 07:20:30;;;;;;;4.07;3.88;;;8.30;99.90;;;;;;5000364;28;20238;-85
2023/10/20 07:23:08;;;;;;;3.65;3.47;;;8.30;99.90;;;;;;5002001;28;20213;-88
2023/10/20 07:25:41;;;;;;;5.13;4.72;;;8.40;99.90;;;;;;4992827;28;20210;-89
2023/10/20 07:28:13;;;;;;;7.68;6.93;;;8.40;99.90;;;;;;4992545;28;20210;-83
2023/10/20 07:30:41;;;;;;;5.22;5.00;;;8.40;99.90;;;;;;4999045;28;20732;-83
2023/10/20 07:33:10;;;;;;;3.85;3.65;;;8.40;99.90;;;;;;4991304;28;20226;-83
2023/10/20 07:35:38;;;;;;;7.60;7.07;;;8.30;99.90;;;;;;4994582;28;20218;-86
2023/10/20 07:38:07;;;;;;;15.80;7.10;;;8.30;99.90;;;;;;4985310;28;20214;-81
2023/10/20 07:40:35;;;;;;;5.78;5.38;;;8.40;99.90;;;;;;4992076;28;20225;-82
2023/10/20 07:43:06;;;;;;;8.80;8.13;;;8.50;99.90;;;;;;4989966;28;20234;-84
2023/10/20 07:45:43;;;;;;;8.23;7.50;;;8.50;99.90;;;;;;4997785;28;20262;-81
2023/10/20 07:48:14;;;;;;;11.50;10.50;;;8.50;99.90;;;;;;5000282;28;20216;-85
2023/10/20 07:50:41;;;;;;;6.70;6.30;;;8.40;99.90;;;;;;5004216;28;20450;-81
2023/10/20 07:53:10;;;;;;;2.90;2.80;;;8.50;99.90;;;;;;5009035;28;20234;-84
2023/10/20 07:55:39;;;;;;;6.35;5.95;;;8.50;99.90;;;;;;5012171;28;20241;-86
2023/10/20 07:58:08;;;;;;;4.93;4.63;;;8.50;99.90;;;;;;5006463;28;20483;-87
2023/10/20 08:00:36;;;;;;;17.77;8.65;;;8.50;99.90;;;;;;5013116;28;20214;-82
2023/10/20 08:03:05;;;;;;;3.35;3.15;;;8.50;99.90;;;;;;5006921;28;20278;-79
2023/10/20 08:05:37;;;;;;;5.75;5.25;;;8.50;99.90;;;;;;5013495;28;20231;-84
2023/10/20 08:08:07;;;;;;;4.80;4.45;;;8.50;99.90;;;;;;4993109;28;20309;-82
2023/10/20 08:10:37;;;;;;;5.55;5.18;;;8.60;99.90;;;;;;4986774;28;20203;-83
2023/10/20 08:13:06;;;;;;;5.63;5.28;;;8.60;99.90;;;;;;5004428;28;20282;-85
2023/10/20 08:15:39;;;;;;;9.48;8.68;;;8.60;99.90;;;;;;5005986;28;20221;-81
2023/10/20 08:18:07;;;;;;;3.85;3.55;;;8.60;99.90;;;;;;4999149;28;20213;-80
2023/10/20 08:20:34;;;;;;;4.57;4.38;;;8.60;99.90;;;;;;4986520;28;20203;-84
2023/10/20 08:23:03;;;;;;;7.43;7.03;;;8.70;99.90;;;;;;4994113;28;20215;-82
2023/10/20 08:25:31;;;;;;;4.20;3.97;;;8.70;99.90;;;;;;5000723;28;20210;-83
2023/10/20 08:28:00;;;;;;;6.13;5.45;;;8.70;99.90;;;;;;4997228;28;20493;-81
2023/10/20 08:30:29;;;;;;;7.40;6.88;;;8.80;99.90;;;;;;4996753;28;20320;-79
2023/10/20 08:33:05;;;;;;;3.40;3.20;;;8.60;99.90;;;;;;4999051;28;20266;-81
2023/10/20 08:35:35;;;;;;;4.18;3.97;;;8.60;99.90;;;;;;5023105;28;20255;-81
2023/10/20 08:38:03;;;;;;;4.82;3.28;;;8.70;99.90;;;;;;5010357;28;20210;-86
2023/10/20 08:40:33;;;;;;;4.30;4.05;;;8.70;99.90;;;;;;5014477;28;20216;-86
2023/10/20 08:43:16;;;;;;;4.32;4.10;;;8.60;99.90;;;;;;5007180;28;20206;-86
2023/10/20 08:45:43;;;;;;;4.00;3.00;;;8.70;99.90;;;;;;4995960;28;20202;-86
2023/10/20 08:48:12;;;;;;;7.55;5.18;;;8.70;99.90;;;;;;5002053;28;20269;-86
2023/10/20 08:50:41;;;;;;;2.67;2.58;;;8.70;99.90;;;;;;5002337;28;20266;-88
2023/10/20 08:53:14;;;;;;;8.35;5.50;;;8.80;99.90;;;;;;5000345;28;20641;-86
2023/10/20 08:55:47;;;;;;;8.88;8.00;;;8.70;99.90;;;;;;4987894;28;20211;-82
2023/10/20 08:58:17;;;;;;;7.45;6.78;;;8.70;99.90;;;;;;4996113;28;20294;-81
2023/10/20 09:00:44;;;;;;;8.02;3.25;;;8.80;99.90;;;;;;4995921;28;20293;-82
2023/10/20 09:03:26;;;;;;;10.35;9.60;;;8.80;99.90;;;;;;4994586;28;20210;-81
2023/10/20 09:06:08;;;;;;;4.45;4.22;;;8.80;99.90;;;;;;4997737;28;20218;-85
2023/10/20 09:08:37;;;;;;;14.15;6.90;;;8.80;99.90;;;;;;4999617;28;20207;-86
2023/10/20 09:11:11;;;;;;;5.10;4.75;;;8.80;99.90;;;;;;4994003;28;20205;-85
2023/10/20 09:13:43;;;;;;;3.65;3.35;;;8.80;99.90;;;;;;5003955;28;20234;-83
2023/10/20 09:16:14;;;;;;;10.20;5.78;;;8.80;99.90;;;;;;5009620;28;20214;-87
2023/10/20 09:18:53;;;;;;;3.97;3.78;;;8.80;99.90;;;;;;4998445;28;20260;-82
2023/10/20 09:21:24;;;;;;;12.45;5.85;;;8.90;99.90;;;;;;4996587;28;20391;-86
2023/10/20 09:23:56;;;;;;;5.95;5.38;;;8.90;99.90;;;;;;4997794;28;20261;-81
2023/10/20 09:26:28;;;;;;;8.52;7.57;;;8.90;99.90;;;;;;4996684;28;20266;-85
2023/10/20 09:28:56;;;;;;;7.30;6.03;;;8.80;99.90;;;;;;4990855;28;20199;-90
2023/10/20 09:31:26;;;;;;;3.67;3.55;;;8.90;99.90;;;;;;4998957;28;20202;-85
2023/10/20 09:33:58;;;;;;;6.15;5.80;;;9.00;99.90;;;;;;4998379;28;20229;-85
2023/10/20 09:36:30;;;;;;;5.78;5.35;;;8.90;99.90;;;;;;4994652;28;20270;-90
2023/10/20 09:39:00;;;;;;;7.63;7.13;;;9.00;99.90;;;;;;5004104;28;20214;-86
2023/10/20 09:41:37;;;;;;;5.45;5.05;;;9.00;99.90;;;;;;4977616;28;20210;-83
2023/10/20 09:44:08;;;;;;;6.80;6.35;;;9.00;99.90;;;;;;5007849;28;20201;-85
2023/10/20 09:47:02;;;;;;;4.93;4.63;;;9.10;99.90;;;;;;5015741;28;20204;-89
2023/10/20 09:49:31;;;;;;;2.97;2.80;;;9.10;99.90;;;;;;5006859;28;20242;-86
2023/10/20 09:51:59;;;;;;;5.55;5.13;;;9.10;99.90;;;;;;5028521;28;20266;-81
2023/10/20 09:54:30;;;;;;;4.88;4.63;;;9.00;99.90;;;;;;5009266;28;20300;-80
2023/10/20 09:57:05;;;;;;;9.98;6.43;;;9.00;99.90;;;;;;5008583;28;20193;-88
2023/10/20 09:59:39;;;;;;;3.17;2.90;;;9.20;99.90;;;;;;5010210;28;20273;-81
2023/10/20 10:02:10;;;;;;;7.03;6.43;;;9.10;99.90;;;;;;5075431;23;20537;-82
2023/10/20 10:04:39;;;;;;;10.90;9.43;;;9.20;99.90;;;;;;4977992;28;20274;-81
2023/10/20 10:07:10;;;;;;;13.75;5.53;;;9.20;99.90;;;;;;4994508;28;20202;-82
2023/10/20 10:09:52;;;;;;;4.05;3.70;;;9.20;99.90;;;;;;4982601;28;20220;-81
2023/10/20 10:12:23;;;;;;;6.07;5.57;;;9.20;99.90;;;;;;4984952;28;20206;-82
2023/10/20 10:15:05;;;;;;;5.60;5.22;;;9.20;99.90;;;;;;4982238;28;20242;-79
2023/10/20 10:17:54;;;;;;;3.28;3.10;;;9.30;99.90;;;;;;4986523;28;20214;-89
2023/10/20 10:20:25;;;;;;;11.93;11.10;;;9.30;99.90;;;;;;4989688;28;20217;-86
2023/10/20 10:23:00;;;;;;;6.78;6.22;;;9.40;99.90;;;;;;4984854;28;20209;-86
2023/10/20 10:25:36;;;;;;;6.35;6.00;;;9.40;99.90;;;;;;4982337;28;20274;-85
2023/10/20 10:28:22;;;;;;;5.03;4.63;;;9.40;99.90;;;;;;4985844;28;20232;-88
2023/10/20 10:31:01;;;;;;;4.50;4.10;;;9.40;99.90;;;;;;4997186;28;20198;-84
2023/10/20 10:33:33;;;;;;;7.43;6.88;;;9.40;99.90;;;;;;4985084;28;20423;-85
2023/10/20 10:36:09;;;;;;;2.72;2.63;;;9.40;99.90;;;;;;4983725;28;20233;-82
2023/10/20 10:38:45;;;;;;;6.95;6.43;;;9.50;99.90;;;;;;4983848;28;20245;-86
2023/10/20 10:41:25;;;;;;;4.20;4.00;;;9.50;99.90;;;;;;4978017;28;20214;-81
2023/10/20 10:43:54;;;;;;;10.63;9.65;;;9.50;99.90;;;;;;4978922;28;20550;-80
2023/10/20 10:46:42;;;;;;;8.35;7.35;;;9.50;99.90;;;;;;4991187;28;21785;-89
2023/10/20 10:49:10;;;;;;;10.18;9.15;;;9.60;99.90;;;;;;4983466;28;20237;-85
2023/10/20 10:51:47;;;;;;;5.18;4.75;;;9.60;99.90;;;;;;4988787;28;20214;-80
2023/10/20 10:54:20;;;;;;;4.07;3.78;;;9.60;99.90;;;;;;4986998;28;20312;-91
2023/10/20 10:56:53;;;;;;;7.35;6.85;;;9.50;99.90;;;;;;4984367;28;20403;-81
2023/10/20 10:59:23;;;;;;;2.65;2.55;;;9.60;99.90;;;;;;4993629;28;20218;-85
2023/10/20 11:01:52;;;;;;;5.47;5.18;;;9.70;99.90;;;;;;4993313;28;20247;-87
2023/10/20 11:04:20;;;;;;;3.10;3.00;;;9.70;99.90;;;;;;4987288;28;20407;-85
2023/10/20 11:06:48;;;;;;;7.07;6.32;;;9.70;99.90;;;;;;4982150;28;20215;-86
2023/10/20 11:09:29;;;;;;;9.75;8.90;;;9.70;99.90;;;;;;4980928;28;20206;-88
2023/10/20 11:11:56;;;;;;;2.85;2.75;;;9.90;99.90;;;;;;4981960;28;20206;-86
2023/10/20 11:14:31;;;;;;;4.53;4.32;;;9.90;99.90;;;;;;4991840;28;20326;-85
2023/10/20 11:17:04;;;;;;;9.18;7.20;;;9.90;99.90;;;;;;4985048;28;20206;-85
2023/10/20 11:19:33;;;;;;;6.13;5.68;;;10.00;99.90;;;;;;4989668;28;20294;-85
2023/10/20 11:22:17;;;;;;;8.50;7.88;;;10.00;99.90;;;;;;4990440;28;20514;-83
2023/10/20 11:24:53;;;;;;;3.15;2.70;;;10.00;99.90;;;;;;4988348;28;20262;-89
2023/10/20 11:27:23;;;;;;;7.50;6.85;;;10.00;99.90;;;;;;5000501;28;20505;-85
2023/10/20 11:29:53;;;;;;;11.90;5.70;;;10.10;99.90;;;;;;4995925;28;20418;-88
2023/10/20 11:32:25;;;;;;;14.20;6.10;;;10.10;99.90;;;;;;4998917;28;20355;-89
2023/10/20 11:34:59;;;;;;;7.65;7.10;;;10.10;99.90;;;;;;4994084;28;20658;-88
2023/10/20 11:37:29;;;;;;;8.32;7.75;;;10.10;99.90;;;;;;4994252;28;20282;-85
2023/10/20 11:39:59;;;;;;;5.40;5.10;;;10.10;99.90;;;;;;4999835;28;20218;-86
2023/10/20 11:42:32;;;;;;;5.45;5.15;;;10.20;99.90;;;;;;5006727;28;20218;-81
2023/10/20 11:45:01;;;;;;;3.83;3.53;;;10.20;99.90;;;;;;4994481;28;20262;-86
2023/10/20 11:47:29;;;;;;;9.38;8.48;;;10.20;99.90;;;;;;5004068;28;20214;-84
2023/10/20 11:50:00;;;;;;;7.25;6.75;;;10.20;99.90;;;;;;5001128;28;20222;-79
2023/10/20 11:52:28;;;;;;;7.50;6.90;;;10.30;99.90;;;;;;4996761;28;20221;-82
2023/10/20 11:55:00;;;;;;;9.57;8.63;;;10.30;99.90;;;;;;5000090;28;20241;-83
2023/10/20 11:57:28;;;;;;;7.30;6.80;;;10.20;99.90;;;;;;4984554;28;20202;-86
2023/10/20 11:59:58;;;;;;;6.25;5.85;;;10.20;99.90;;;;;;4988956;28;20239;-91
2023/10/20 12:02:32;;;;;;;8.80;7.97;;;10.30;99.90;;;;;;4978447;28;20261;-87
2023/10/20 12:05:00;;;;;;;9.23;8.40;;;10.30;99.90;;;;;;4975014;28;20211;-84
2023/10/20 12:07:37;;;;;;;3.22;3.13;;;10.30;99.90;;;;;;4975560;28;20241;-84
2023/10/20 12:10:08;;;;;;;5.22;5.00;;;10.40;99.90;;;;;;5004047;28;20241;-82
2023/10/20 12:13:04;;;;;;;7.70;7.00;;;10.50;99.90;;;;;;4997404;28;20278;-87
2023/10/20 12:15:33;;;;;;;8.48;7.30;;;10.50;99.90;;;;;;4990150;28;20293;-85
2023/10/20 12:18:02;;;;;;;8.02;4.53;;;10.50;99.90;;;;;;4990345;28;20399;-78
2023/10/20 12:20:31;;;;;;;6.65;6.18;;;10.50;99.90;;;;;;4990261;28;20199;-83
2023/10/20 12:23:05;;;;;;;3.45;3.35;;;10.50;99.90;;;;;;4993336;28;21287;-85
2023/10/20 12:25:37;;;;;;;8.02;7.15;;;10.50;99.90;;;;;;4997226;28;20225;-81
2023/10/20 12:28:07;;;;;;;2.35;2.25;;;10.60;99.90;;;;;;4992843;28;20503;-80
2023/10/20 12:30:33;;;;;;;5.88;5.45;;;10.60;99.90;;;;;;5000916;28;20232;-88
2023/10/20 12:33:08;;;;;;;8.35;7.38;;;10.70;99.90;;;;;;5001299;28;20198;-85
2023/10/20 12:35:47;;;;;;;21.70;5.88;;;10.70;99.90;;;;;;5001334;28;20222;-91
2023/10/20 12:38:21;;;;;;;7.07;6.43;;;10.70;99.90;;;;;;4979057;28;20225;-85
2023/10/20 12:40:50;;;;;;;8.77;7.97;;;10.70;99.90;;;;;;5002089;28;20210;-81
2023/10/20 12:43:17;;;;;;;3.00;2.90;;;10.70;99.90;;;;;;4991147;28;20210;-87
2023/10/20 12:45:47;;;;;;;6.45;4.82;;;10.70;99.90;;;;;;4998166;28;20214;-86
2023/10/20 12:48:14;;;;;;;20.08;7.38;;;10.80;99.90;;;;;;4993943;28;20203;-85
2023/10/20 12:50:44;;;;;;;6.45;6.07;;;10.80;99.90;;;;;;4992984;28;20415;-87
2023/10/20 12:53:21;;;;;;;9.85;8.85;;;10.80;99.90;;;;;;4985826;28;20266;-88
2023/10/20 12:56:13;;;;;;;3.75;3.55;;;10.80;99.90;;;;;;4989128;28;20245;-83
2023/10/20 12:58:44;;;;;;;4.07;3.80;;;10.90;99.90;;;;;;5015901;28;20203;-83
2023/10/20 13:01:12;;;;;;;10.60;8.63;;;10.90;99.90;;;;;;4992883;28;20523;-85
2023/10/20 13:03:44;;;;;;;7.40;6.78;;;10.80;99.90;;;;;;5001246;28;20236;-88
2023/10/20 13:08:50;;;;;;;8.45;6.95;;;10.90;99.90;;;;;;4999405;28;20228;-85
2023/10/20 13:11:18;;;;;;;9.07;8.32;;;10.90;99.90;;;;;;5002482;28;20261;-80
2023/10/20 13:13:46;;;;;;;9.77;6.20;;;11.00;99.90;;;;;;4974375;28;20258;-87
2023/10/20 13:16:13;;;;;;;10.25;6.85;;;11.00;99.90;;;;;;4996309;28;20226;-81
2023/10/20 13:18:41;;;;;;;6.95;6.40;;;11.10;99.90;;;;;;4990740;28;20526;-85
2023/10/20 13:21:12;;;;;;;7.45;6.80;;;11.00;99.90;;;;;;4983340;28;20262;-87
2023/10/20 13:23:39;;;;;;;9.10;4.05;;;11.10;99.90;;;;;;4990157;28;20237;-83
2023/10/20 13:26:07;;;;;;;7.47;6.82;;;11.10;99.90;;;;;;4993605;28;20211;-88
2023/10/20 13:28:37;;;;;;;8.75;5.72;;;11.10;99.90;;;;;;4988260;28;20210;-84
2023/10/20 13:31:10;;;;;;;11.05;10.23;;;11.10;99.90;;;;;;4999611;28;20273;-86
2023/10/20 13:33:44;;;;;;;7.90;7.20;;;11.10;99.90;;;;;;4986633;28;20215;-83
2023/10/20 13:36:13;;;;;;;4.03;3.83;;;11.10;99.90;;;;;;4982957;28;20239;-86
2023/10/20 13:38:45;;;;;;;5.22;4.80;;;11.20;99.90;;;;;;4999674;28;20218;-85
2023/10/20 13:41:23;;;;;;;4.25;4.05;;;11.20;99.90;;;;;;4995060;28;20269;-90
2023/10/20 13:44:23;;;;;;;6.07;5.60;;;11.20;99.90;;;;;;5109558;23;20219;-89